sensor_id;sensor_type;location;lat;lon;timestamp;P1;durP1;ratioP1;P2;durP2;ratioP2
58242;SDS011;50118;53.232;8.252;2023-07-20T00:02:15;4.93;;;2.25;;
58242;SDS011;50118;53.232;8.252;2023-07-20T00:04:40;3.00;;;2.20;;
58242;SDS011;50118;53.232;8.252;2023-07-20T00:07:06;3.05;;;2.22;;
58242;SDS011;50118;53.232;8.252;2023-07-20T00:09:31;2.97;;;2.30;;
58242;SDS011;50118;53.232;8.252;2023-07-20T00:11:57;3.28;;;2.28;;
58242;SDS011;50118;53.232;8.252;2023-07-20T00:14:24;3.55;;;2.10;;
58242;SDS011;50118;53.232;8.252;2023-07-20T00:16:50;4.70;;;2.70;;
58242;SDS011;50118;53.232;8.252;2023-07-20T00:19:26;3.72;;;2.50;;
58242;SDS011;50118;53.232;8.252;2023-07-20T00:21:52;4.47;;;2.35;;
58242;SDS011;50118;53.232;8.252;2023-07-20T00:24:19;4.53;;;2.45;;
58242;SDS011;50118;53.232;8.252;2023-07-20T00:26:45;3.58;;;2.60;;
58242;SDS011;50118;53.232;8.252;2023-07-20T00:29:10;3.00;;;2.30;;
58242;SDS011;50118;53.232;8.252;2023-07-20T00:31:36;4.57;;;2.70;;
58242;SDS011;50118;53.232;8.252;2023-07-20T00:34:05;2.90;;;2.22;;
58242;SDS011;50118;53.232;8.252;2023-07-20T00:36:31;3.65;;;2.45;;
58242;SDS011;50118;53.232;8.252;2023-07-20T00:38:56;3.70;;;2.40;;
58242;SDS011;50118;53.232;8.252;2023-07-20T00:41:22;3.80;;;2.80;;
58242;SDS011;50118;53.232;8.252;2023-07-20T00:43:47;3.05;;;2.47;;
58242;SDS011;50118;53.232;8.252;2023-07-20T00:46:13;3.22;;;2.60;;
58242;SDS011;50118;53.232;8.252;2023-07-20T00:48:39;3.72;;;2.40;;
58242;SDS011;50118;53.232;8.252;2023-07-20T00:51:05;4.30;;;2.65;;
58242;SDS011;50118;53.232;8.252;2023-07-20T00:53:31;3.30;;;2.65;;
58242;SDS011;50118;53.232;8.252;2023-07-20T00:55:56;4.20;;;2.50;;
58242;SDS011;50118;53.232;8.252;2023-07-20T00:58:22;3.95;;;2.53;;
58242;SDS011;50118;53.232;8.252;2023-07-20T01:00:49;3.33;;;2.70;;
58242;SDS011;50118;53.232;8.252;2023-07-20T01:03:14;2.90;;;2.50;;
58242;SDS011;50118;53.232;8.252;2023-07-20T01:05:41;4.88;;;2.70;;
58242;SDS011;50118;53.232;8.252;2023-07-20T01:08:15;3.78;;;2.40;;
58242;SDS011;50118;53.232;8.252;2023-07-20T01:10:51;4.00;;;2.60;;
58242;SDS011;50118;53.232;8.252;2023-07-20T01:13:22;3.38;;;2.30;;
58242;SDS011;50118;53.232;8.252;2023-07-20T01:15:56;3.97;;;2.33;;
58242;SDS011;50118;53.232;8.252;2023-07-20T01:18:25;3.53;;;2.40;;
58242;SDS011;50118;53.232;8.252;2023-07-20T01:20:50;3.45;;;2.30;;
58242;SDS011;50118;53.232;8.252;2023-07-20T01:31:32;3.50;;;2.50;;
58242;SDS011;50118;53.232;8.252;2023-07-20T01:34:00;3.53;;;2.53;;
58242;SDS011;50118;53.232;8.252;2023-07-20T01:36:29;3.75;;;2.63;;
58242;SDS011;50118;53.232;8.252;2023-07-20T01:38:58;3.42;;;2.40;;
58242;SDS011;50118;53.232;8.252;2023-07-20T01:41:24;4.05;;;2.60;;
58242;SDS011;50118;53.232;8.252;2023-07-20T01:43:49;4.03;;;2.90;;
58242;SDS011;50118;53.232;8.252;2023-07-20T01:46:15;3.85;;;2.53;;
58242;SDS011;50118;53.232;8.252;2023-07-20T01:48:41;4.15;;;2.88;;
58242;SDS011;50118;53.232;8.252;2023-07-20T01:51:06;3.42;;;2.70;;
58242;SDS011;50118;53.232;8.252;2023-07-20T01:53:32;3.85;;;2.58;;
58242;SDS011;50118;53.232;8.252;2023-07-20T01:55:57;4.07;;;2.90;;
58242;SDS011;50118;53.232;8.252;2023-07-20T01:58:23;4.15;;;2.90;;
58242;SDS011;50118;53.232;8.252;2023-07-20T02:00:49;3.80;;;3.15;;
58242;SDS011;50118;53.232;8.252;2023-07-20T02:03:15;5.45;;;2.90;;
58242;SDS011;50118;53.232;8.252;2023-07-20T02:05:44;3.55;;;2.63;;
58242;SDS011;50118;53.232;8.252;2023-07-20T02:08:10;3.90;;;3.20;;
58242;SDS011;50118;53.232;8.252;2023-07-20T02:10:36;5.45;;;2.85;;
58242;SDS011;50118;53.232;8.252;2023-07-20T02:13:01;4.28;;;2.80;;
58242;SDS011;50118;53.232;8.252;2023-07-20T02:15:27;4.57;;;3.08;;
58242;SDS011;50118;53.232;8.252;2023-07-20T02:17:53;4.68;;;3.03;;
58242;SDS011;50118;53.232;8.252;2023-07-20T02:20:22;4.07;;;2.80;;
58242;SDS011;50118;53.232;8.252;2023-07-20T02:22:47;3.70;;;2.63;;
58242;SDS011;50118;53.232;8.252;2023-07-20T02:25:13;4.13;;;2.85;;
58242;SDS011;50118;53.232;8.252;2023-07-20T02:27:38;3.88;;;2.80;;
58242;SDS011;50118;53.232;8.252;2023-07-20T02:30:04;4.50;;;3.30;;
58242;SDS011;50118;53.232;8.252;2023-07-20T02:32:30;5.65;;;3.45;;
58242;SDS011;50118;53.232;8.252;2023-07-20T02:35:00;4.15;;;2.95;;
58242;SDS011;50118;53.232;8.252;2023-07-20T02:37:25;4.85;;;3.80;;
58242;SDS011;50118;53.232;8.252;2023-07-20T02:39:50;5.03;;;3.60;;
58242;SDS011;50118;53.232;8.252;2023-07-20T02:42:16;4.85;;;3.15;;
58242;SDS011;50118;53.232;8.252;2023-07-20T02:44:41;5.03;;;3.58;;
58242;SDS011;50118;53.232;8.252;2023-07-20T02:47:07;5.18;;;3.70;;
58242;SDS011;50118;53.232;8.252;2023-07-20T02:49:33;4.97;;;3.60;;
58242;SDS011;50118;53.232;8.252;2023-07-20T02:51:58;4.38;;;3.70;;
58242;SDS011;50118;53.232;8.252;2023-07-20T02:54:24;5.88;;;3.95;;
58242;SDS011;50118;53.232;8.252;2023-07-20T02:56:49;7.20;;;4.40;;
58242;SDS011;50118;53.232;8.252;2023-07-20T02:59:14;5.30;;;3.83;;
58242;SDS011;50118;53.232;8.252;2023-07-20T03:01:40;5.18;;;4.00;;
58242;SDS011;50118;53.232;8.252;2023-07-20T03:04:07;5.32;;;3.47;;
58242;SDS011;50118;53.232;8.252;2023-07-20T03:06:35;4.93;;;4.13;;
58242;SDS011;50118;53.232;8.252;2023-07-20T03:09:01;6.70;;;4.70;;
58242;SDS011;50118;53.232;8.252;2023-07-20T03:11:27;5.53;;;4.60;;
58242;SDS011;50118;53.232;8.252;2023-07-20T03:13:52;4.70;;;4.00;;
58242;SDS011;50118;53.232;8.252;2023-07-20T03:16:18;5.82;;;3.88;;
58242;SDS011;50118;53.232;8.252;2023-07-20T03:18:47;6.07;;;4.68;;
58242;SDS011;50118;53.232;8.252;2023-07-20T03:21:13;5.65;;;4.53;;
58242;SDS011;50118;53.232;8.252;2023-07-20T03:23:41;5.07;;;4.38;;
58242;SDS011;50118;53.232;8.252;2023-07-20T03:26:07;6.18;;;5.05;;
58242;SDS011;50118;53.232;8.252;2023-07-20T03:28:36;6.38;;;4.93;;
58242;SDS011;50118;53.232;8.252;2023-07-20T03:31:02;6.90;;;4.75;;
58242;SDS011;50118;53.232;8.252;2023-07-20T03:33:28;6.57;;;4.63;;
58242;SDS011;50118;53.232;8.252;2023-07-20T03:35:55;5.57;;;4.47;;
58242;SDS011;50118;53.232;8.252;2023-07-20T03:40:51;5.95;;;4.57;;
58242;SDS011;50118;53.232;8.252;2023-07-20T03:43:17;6.57;;;5.10;;
58242;SDS011;50118;53.232;8.252;2023-07-20T03:45:43;7.57;;;5.60;;
58242;SDS011;50118;53.232;8.252;2023-07-20T03:48:09;7.15;;;5.10;;
58242;SDS011;50118;53.232;8.252;2023-07-20T03:50:34;5.80;;;4.72;;
58242;SDS011;50118;53.232;8.252;2023-07-20T03:53:00;7.45;;;5.25;;
58242;SDS011;50118;53.232;8.252;2023-07-20T03:55:25;7.70;;;5.28;;
58242;SDS011;50118;53.232;8.252;2023-07-20T03:57:51;7.72;;;5.65;;
58242;SDS011;50118;53.232;8.252;2023-07-20T04:00:17;7.10;;;4.85;;
58242;SDS011;50118;53.232;8.252;2023-07-20T04:02:43;6.35;;;4.75;;
58242;SDS011;50118;53.232;8.252;2023-07-20T04:05:09;7.22;;;4.97;;
58242;SDS011;50118;53.232;8.252;2023-07-20T04:07:34;7.50;;;5.28;;
58242;SDS011;50118;53.232;8.252;2023-07-20T04:10:00;6.43;;;5.00;;
58242;SDS011;50118;53.232;8.252;2023-07-20T04:12:25;5.70;;;4.65;;
58242;SDS011;50118;53.232;8.252;2023-07-20T04:14:51;11.07;;;5.40;;
58242;SDS011;50118;53.232;8.252;2023-07-20T04:17:16;6.65;;;5.30;;
58242;SDS011;50118;53.232;8.252;2023-07-20T04:19:42;5.97;;;4.70;;
58242;SDS011;50118;53.232;8.252;2023-07-20T04:22:08;6.43;;;5.55;;
58242;SDS011;50118;53.232;8.252;2023-07-20T04:24:33;6.38;;;4.95;;
58242;SDS011;50118;53.232;8.252;2023-07-20T04:26:59;6.15;;;4.97;;
58242;SDS011;50118;53.232;8.252;2023-07-20T04:29:24;5.60;;;4.65;;
58242;SDS011;50118;53.232;8.252;2023-07-20T04:31:50;4.72;;;3.80;;
58242;SDS011;50118;53.232;8.252;2023-07-20T04:34:15;5.53;;;3.92;;
58242;SDS011;50118;53.232;8.252;2023-07-20T04:36:41;4.93;;;3.90;;
58242;SDS011;50118;53.232;8.252;2023-07-20T04:39:06;3.80;;;3.00;;
58242;SDS011;50118;53.232;8.252;2023-07-20T04:41:33;5.57;;;3.05;;
58242;SDS011;50118;53.232;8.252;2023-07-20T04:43:59;3.08;;;2.17;;
58242;SDS011;50118;53.232;8.252;2023-07-20T04:46:25;3.88;;;2.08;;
58242;SDS011;50118;53.232;8.252;2023-07-20T04:48:50;3.92;;;2.05;;
58242;SDS011;50118;53.232;8.252;2023-07-20T04:51:15;3.13;;;1.85;;
58242;SDS011;50118;53.232;8.252;2023-07-20T04:53:45;2.00;;;1.80;;
58242;SDS011;50118;53.232;8.252;2023-07-20T04:56:10;3.30;;;1.80;;
58242;SDS011;50118;53.232;8.252;2023-07-20T04:58:36;2.08;;;1.52;;
58242;SDS011;50118;53.232;8.252;2023-07-20T05:01:01;3.28;;;1.75;;
58242;SDS011;50118;53.232;8.252;2023-07-20T05:03:26;1.85;;;1.40;;
58242;SDS011;50118;53.232;8.252;2023-07-20T05:05:53;2.35;;;1.50;;
58242;SDS011;50118;53.232;8.252;2023-07-20T05:08:18;3.28;;;1.20;;
58242;SDS011;50118;53.232;8.252;2023-07-20T05:10:44;3.65;;;1.85;;
58242;SDS011;50118;53.232;8.252;2023-07-20T05:13:09;2.97;;;1.33;;
58242;SDS011;50118;53.232;8.252;2023-07-20T05:15:34;2.53;;;1.27;;
58242;SDS011;50118;53.232;8.252;2023-07-20T05:18:00;1.33;;;1.10;;
58242;SDS011;50118;53.232;8.252;2023-07-20T05:20:26;3.75;;;1.20;;
58242;SDS011;50118;53.232;8.252;2023-07-20T05:22:52;2.92;;;1.50;;
58242;SDS011;50118;53.232;8.252;2023-07-20T05:25:18;1.98;;;1.10;;
58242;SDS011;50118;53.232;8.252;2023-07-20T05:27:43;1.42;;;1.10;;
58242;SDS011;50118;53.232;8.252;2023-07-20T05:30:10;1.55;;;1.10;;
58242;SDS011;50118;53.232;8.252;2023-07-20T05:32:36;3.05;;;1.13;;
58242;SDS011;50118;53.232;8.252;2023-07-20T05:35:01;2.50;;;1.10;;
58242;SDS011;50118;53.232;8.252;2023-07-20T05:37:27;3.03;;;1.00;;
58242;SDS011;50118;53.232;8.252;2023-07-20T05:39:52;1.17;;;0.90;;
58242;SDS011;50118;53.232;8.252;2023-07-20T05:42:17;1.75;;;1.00;;
58242;SDS011;50118;53.232;8.252;2023-07-20T05:44:43;2.38;;;0.80;;
58242;SDS011;50118;53.232;8.252;2023-07-20T05:47:08;2.28;;;1.00;;
58242;SDS011;50118;53.232;8.252;2023-07-20T05:49:34;2.15;;;0.90;;
58242;SDS011;50118;53.232;8.252;2023-07-20T05:52:00;2.95;;;1.17;;
58242;SDS011;50118;53.232;8.252;2023-07-20T05:54:26;1.10;;;1.00;;
58242;SDS011;50118;53.232;8.252;2023-07-20T05:56:51;2.45;;;1.10;;
58242;SDS011;50118;53.232;8.252;2023-07-20T05:59:17;2.15;;;1.13;;
58242;SDS011;50118;53.232;8.252;2023-07-20T06:01:43;2.28;;;1.00;;
58242;SDS011;50118;53.232;8.252;2023-07-20T06:04:09;2.08;;;1.15;;
58242;SDS011;50118;53.232;8.252;2023-07-20T06:06:34;2.28;;;1.10;;
58242;SDS011;50118;53.232;8.252;2023-07-20T06:09:00;1.05;;;0.80;;
58242;SDS011;50118;53.232;8.252;2023-07-20T06:11:29;1.98;;;1.00;;
58242;SDS011;50118;53.232;8.252;2023-07-20T06:13:55;4.43;;;1.10;;
58242;SDS011;50118;53.232;8.252;2023-07-20T06:16:20;2.50;;;1.30;;
58242;SDS011;50118;53.232;8.252;2023-07-20T06:18:46;1.65;;;0.85;;
58242;SDS011;50118;53.232;8.252;2023-07-20T06:21:11;2.08;;;1.00;;
58242;SDS011;50118;53.232;8.252;2023-07-20T06:23:37;1.77;;;1.00;;
58242;SDS011;50118;53.232;8.252;2023-07-20T06:26:03;1.75;;;1.00;;
58242;SDS011;50118;53.232;8.252;2023-07-20T06:28:28;2.38;;;0.80;;
58242;SDS011;50118;53.232;8.252;2023-07-20T06:30:58;1.38;;;1.00;;
58242;SDS011;50118;53.232;8.252;2023-07-20T06:33:27;3.10;;;1.13;;
58242;SDS011;50118;53.232;8.252;2023-07-20T06:35:52;2.95;;;1.00;;
58242;SDS011;50118;53.232;8.252;2023-07-20T06:38:18;1.83;;;1.00;;
58242;SDS011;50118;53.232;8.252;2023-07-20T06:40:45;1.60;;;0.80;;
58242;SDS011;50118;53.232;8.252;2023-07-20T06:43:11;1.88;;;0.88;;
58242;SDS011;50118;53.232;8.252;2023-07-20T06:45:37;1.02;;;0.80;;
58242;SDS011;50118;53.232;8.252;2023-07-20T06:48:02;2.17;;;1.10;;
58242;SDS011;50118;53.232;8.252;2023-07-20T06:50:28;0.88;;;0.70;;
58242;SDS011;50118;53.232;8.252;2023-07-20T06:52:54;2.40;;;0.90;;
58242;SDS011;50118;53.232;8.252;2023-07-20T06:55:19;2.30;;;0.98;;
58242;SDS011;50118;53.232;8.252;2023-07-20T06:57:44;2.78;;;1.30;;
58242;SDS011;50118;53.232;8.252;2023-07-20T07:00:10;2.47;;;1.00;;
58242;SDS011;50118;53.232;8.252;2023-07-20T07:02:36;1.73;;;1.10;;
58242;SDS011;50118;53.232;8.252;2023-07-20T07:05:01;2.83;;;1.00;;
58242;SDS011;50118;53.232;8.252;2023-07-20T07:07:27;3.25;;;1.50;;
58242;SDS011;50118;53.232;8.252;2023-07-20T07:09:52;2.17;;;1.00;;
58242;SDS011;50118;53.232;8.252;2023-07-20T07:12:18;2.13;;;0.88;;
58242;SDS011;50118;53.232;8.252;2023-07-20T07:14:43;2.03;;;0.90;;
58242;SDS011;50118;53.232;8.252;2023-07-20T07:17:08;2.80;;;1.00;;
58242;SDS011;50118;53.232;8.252;2023-07-20T07:19:34;2.28;;;1.20;;
58242;SDS011;50118;53.232;8.252;2023-07-20T07:22:00;2.20;;;1.17;;
58242;SDS011;50118;53.232;8.252;2023-07-20T07:24:26;2.45;;;1.00;;
58242;SDS011;50118;53.232;8.252;2023-07-20T07:26:52;2.00;;;1.00;;
58242;SDS011;50118;53.232;8.252;2023-07-20T07:29:18;2.42;;;1.13;;
58242;SDS011;50118;53.232;8.252;2023-07-20T07:31:43;4.10;;;1.48;;
58242;SDS011;50118;53.232;8.252;2023-07-20T07:34:08;2.42;;;1.20;;
58242;SDS011;50118;53.232;8.252;2023-07-20T07:36:34;3.50;;;1.02;;
58242;SDS011;50118;53.232;8.252;2023-07-20T07:38:59;3.33;;;1.35;;
58242;SDS011;50118;53.232;8.252;2023-07-20T07:41:25;3.80;;;1.30;;
58242;SDS011;50118;53.232;8.252;2023-07-20T07:43:50;2.60;;;1.17;;
58242;SDS011;50118;53.232;8.252;2023-07-20T07:46:16;3.70;;;1.20;;
58242;SDS011;50118;53.232;8.252;2023-07-20T07:48:42;3.35;;;1.40;;
58242;SDS011;50118;53.232;8.252;2023-07-20T07:51:08;3.30;;;1.40;;
58242;SDS011;50118;53.232;8.252;2023-07-20T07:53:34;2.85;;;1.50;;
58242;SDS011;50118;53.232;8.252;2023-07-20T07:56:01;4.22;;;1.35;;
58242;SDS011;50118;53.232;8.252;2023-07-20T07:58:28;4.60;;;1.50;;
58242;SDS011;50118;53.232;8.252;2023-07-20T08:00:54;5.00;;;1.50;;
58242;SDS011;50118;53.232;8.252;2023-07-20T08:03:19;3.15;;;1.40;;
58242;SDS011;50118;53.232;8.252;2023-07-20T08:05:44;4.85;;;1.60;;
58242;SDS011;50118;53.232;8.252;2023-07-20T08:08:13;3.95;;;1.50;;
58242;SDS011;50118;53.232;8.252;2023-07-20T08:10:38;3.90;;;1.63;;
58242;SDS011;50118;53.232;8.252;2023-07-20T08:13:03;2.78;;;1.50;;
58242;SDS011;50118;53.232;8.252;2023-07-20T08:15:29;2.88;;;1.50;;
58242;SDS011;50118;53.232;8.252;2023-07-20T08:17:54;2.30;;;1.10;;
58242;SDS011;50118;53.232;8.252;2023-07-20T08:20:19;2.97;;;1.40;;
58242;SDS011;50118;53.232;8.252;2023-07-20T08:22:51;3.88;;;1.48;;
58242;SDS011;50118;53.232;8.252;2023-07-20T08:25:16;3.60;;;1.50;;
58242;SDS011;50118;53.232;8.252;2023-07-20T08:27:42;3.88;;;1.65;;
58242;SDS011;50118;53.232;8.252;2023-07-20T08:30:07;3.85;;;1.50;;
58242;SDS011;50118;53.232;8.252;2023-07-20T08:32:33;3.65;;;1.70;;
58242;SDS011;50118;53.232;8.252;2023-07-20T08:34:59;2.78;;;1.70;;
58242;SDS011;50118;53.232;8.252;2023-07-20T08:37:24;3.53;;;1.50;;
58242;SDS011;50118;53.232;8.252;2023-07-20T08:39:49;2.33;;;1.45;;
58242;SDS011;50118;53.232;8.252;2023-07-20T08:42:15;5.25;;;1.48;;
58242;SDS011;50118;53.232;8.252;2023-07-20T08:44:42;3.50;;;1.50;;
58242;SDS011;50118;53.232;8.252;2023-07-20T08:47:09;3.17;;;1.50;;
58242;SDS011;50118;53.232;8.252;2023-07-20T08:49:37;2.92;;;1.50;;
58242;SDS011;50118;53.232;8.252;2023-07-20T08:52:04;4.45;;;1.80;;
58242;SDS011;50118;53.232;8.252;2023-07-20T08:54:30;4.15;;;1.80;;
58242;SDS011;50118;53.232;8.252;2023-07-20T08:57:03;4.38;;;1.73;;
58242;SDS011;50118;53.232;8.252;2023-07-20T08:59:30;4.18;;;1.80;;
58242;SDS011;50118;53.232;8.252;2023-07-20T09:01:57;5.53;;;1.90;;
58242;SDS011;50118;53.232;8.252;2023-07-20T09:04:24;3.97;;;1.90;;
58242;SDS011;50118;53.232;8.252;2023-07-20T09:06:49;5.18;;;2.20;;
58242;SDS011;50118;53.232;8.252;2023-07-20T09:09:15;6.05;;;2.22;;
58242;SDS011;50118;53.232;8.252;2023-07-20T09:11:41;3.95;;;2.00;;
58242;SDS011;50118;53.232;8.252;2023-07-20T09:14:07;4.32;;;1.95;;
58242;SDS011;50118;53.232;8.252;2023-07-20T09:16:52;4.57;;;2.00;;
58242;SDS011;50118;53.232;8.252;2023-07-20T09:19:19;6.05;;;1.77;;
58242;SDS011;50118;53.232;8.252;2023-07-20T09:21:49;4.93;;;1.70;;
58242;SDS011;50118;53.232;8.252;2023-07-20T09:24:17;5.00;;;1.90;;
58242;SDS011;50118;53.232;8.252;2023-07-20T09:26:43;2.95;;;1.40;;
58242;SDS011;50118;53.232;8.252;2023-07-20T09:29:10;3.70;;;1.50;;
58242;SDS011;50118;53.232;8.252;2023-07-20T09:31:36;3.88;;;1.50;;
58242;SDS011;50118;53.232;8.252;2023-07-20T09:34:03;3.70;;;1.40;;
58242;SDS011;50118;53.232;8.252;2023-07-20T09:36:29;3.67;;;1.58;;
58242;SDS011;50118;53.232;8.252;2023-07-20T09:38:59;5.30;;;1.70;;
58242;SDS011;50118;53.232;8.252;2023-07-20T09:41:24;3.70;;;1.40;;
58242;SDS011;50118;53.232;8.252;2023-07-20T09:43:51;3.83;;;1.40;;
58242;SDS011;50118;53.232;8.252;2023-07-20T09:46:18;3.55;;;1.40;;
58242;SDS011;50118;53.232;8.252;2023-07-20T09:48:51;2.60;;;1.52;;
58242;SDS011;50118;53.232;8.252;2023-07-20T09:51:18;2.88;;;1.30;;
58242;SDS011;50118;53.232;8.252;2023-07-20T09:53:46;3.05;;;1.20;;
58242;SDS011;50118;53.232;8.252;2023-07-20T09:56:13;2.75;;;1.27;;
58242;SDS011;50118;53.232;8.252;2023-07-20T09:58:41;3.63;;;1.05;;
58242;SDS011;50118;53.232;8.252;2023-07-20T10:01:09;4.85;;;1.30;;
58242;SDS011;50118;53.232;8.252;2023-07-20T10:03:36;3.20;;;1.33;;
58242;SDS011;50118;53.232;8.252;2023-07-20T10:06:04;2.03;;;1.10;;
58242;SDS011;50118;53.232;8.252;2023-07-20T10:08:38;3.85;;;1.20;;
58242;SDS011;50118;53.232;8.252;2023-07-20T10:11:07;4.43;;;1.00;;
58242;SDS011;50118;53.232;8.252;2023-07-20T10:13:36;1.55;;;0.80;;
58242;SDS011;50118;53.232;8.252;2023-07-20T10:16:03;2.60;;;1.08;;
58242;SDS011;50118;53.232;8.252;2023-07-20T10:18:38;3.30;;;1.20;;
58242;SDS011;50118;53.232;8.252;2023-07-20T10:21:11;3.90;;;1.25;;
58242;SDS011;50118;53.232;8.252;2023-07-20T10:23:37;2.65;;;1.02;;
58242;SDS011;50118;53.232;8.252;2023-07-20T10:26:04;2.17;;;1.10;;
58242;SDS011;50118;53.232;8.252;2023-07-20T10:28:30;3.03;;;1.20;;
58242;SDS011;50118;53.232;8.252;2023-07-20T10:30:56;2.22;;;1.00;;
58242;SDS011;50118;53.232;8.252;2023-07-20T10:33:21;2.38;;;1.00;;
58242;SDS011;50118;53.232;8.252;2023-07-20T10:35:54;2.33;;;1.20;;
58242;SDS011;50118;53.232;8.252;2023-07-20T10:38:37;1.48;;;1.00;;
58242;SDS011;50118;53.232;8.252;2023-07-20T10:41:05;1.75;;;1.00;;
58242;SDS011;50118;53.232;8.252;2023-07-20T10:43:44;2.00;;;1.00;;
58242;SDS011;50118;53.232;8.252;2023-07-20T10:46:10;3.28;;;1.20;;
58242;SDS011;50118;53.232;8.252;2023-07-20T10:48:39;2.67;;;0.80;;
58242;SDS011;50118;53.232;8.252;2023-07-20T10:51:30;1.80;;;0.90;;
58242;SDS011;50118;53.232;8.252;2023-07-20T10:54:03;4.07;;;1.02;;
58242;SDS011;50118;53.232;8.252;2023-07-20T10:56:28;3.35;;;1.00;;
58242;SDS011;50118;53.232;8.252;2023-07-20T10:59:00;2.00;;;0.90;;
58242;SDS011;50118;53.232;8.252;2023-07-20T11:01:29;3.53;;;1.10;;
58242;SDS011;50118;53.232;8.252;2023-07-20T11:03:59;4.13;;;1.10;;
58242;SDS011;50118;53.232;8.252;2023-07-20T11:11:29;3.70;;;1.15;;
58242;SDS011;50118;53.232;8.252;2023-07-20T11:13:59;2.45;;;1.00;;
58242;SDS011;50118;53.232;8.252;2023-07-20T11:16:39;6.55;;;1.58;;
58242;SDS011;50118;53.232;8.252;2023-07-20T11:19:13;2.42;;;1.15;;
58242;SDS011;50118;53.232;8.252;2023-07-20T11:21:46;4.72;;;1.38;;
58242;SDS011;50118;53.232;8.252;2023-07-20T11:24:14;4.80;;;1.30;;
58242;SDS011;50118;53.232;8.252;2023-07-20T11:26:40;4.68;;;1.40;;
58242;SDS011;50118;53.232;8.252;2023-07-20T11:29:07;4.40;;;1.30;;
58242;SDS011;50118;53.232;8.252;2023-07-20T11:31:36;3.75;;;1.20;;
58242;SDS011;50118;53.232;8.252;2023-07-20T11:34:06;3.40;;;1.20;;
58242;SDS011;50118;53.232;8.252;2023-07-20T11:36:34;3.40;;;1.30;;
58242;SDS011;50118;53.232;8.252;2023-07-20T11:39:06;3.87;;;1.20;;
58242;SDS011;50118;53.232;8.252;2023-07-20T11:41:34;3.50;;;1.40;;
58242;SDS011;50118;53.232;8.252;2023-07-20T11:43:59;3.42;;;1.10;;
58242;SDS011;50118;53.232;8.252;2023-07-20T11:46:27;3.55;;;1.30;;
58242;SDS011;50118;53.232;8.252;2023-07-20T11:48:57;2.63;;;1.00;;
58242;SDS011;50118;53.232;8.252;2023-07-20T11:51:24;2.20;;;1.20;;
58242;SDS011;50118;53.232;8.252;2023-07-20T11:53:51;4.95;;;1.25;;
58242;SDS011;50118;53.232;8.252;2023-07-20T11:56:17;2.60;;;1.10;;
58242;SDS011;50118;53.232;8.252;2023-07-20T11:58:45;2.25;;;1.10;;
58242;SDS011;50118;53.232;8.252;2023-07-20T12:01:12;1.83;;;1.05;;
58242;SDS011;50118;53.232;8.252;2023-07-20T12:03:38;2.55;;;1.13;;
58242;SDS011;50118;53.232;8.252;2023-07-20T12:06:07;2.67;;;1.20;;
58242;SDS011;50118;53.232;8.252;2023-07-20T12:08:33;4.88;;;1.60;;
58242;SDS011;50118;53.232;8.252;2023-07-20T12:10:58;3.22;;;1.27;;
58242;SDS011;50118;53.232;8.252;2023-07-20T12:13:34;2.15;;;1.00;;
58242;SDS011;50118;53.232;8.252;2023-07-20T12:16:06;3.70;;;1.10;;
58242;SDS011;50118;53.232;8.252;2023-07-20T12:18:36;2.08;;;1.20;;
58242;SDS011;50118;53.232;8.252;2023-07-20T12:21:02;3.15;;;1.20;;
58242;SDS011;50118;53.232;8.252;2023-07-20T12:23:34;2.88;;;1.13;;
58242;SDS011;50118;53.232;8.252;2023-07-20T12:26:10;1.92;;;1.10;;
58242;SDS011;50118;53.232;8.252;2023-07-20T12:28:38;3.92;;;1.20;;
58242;SDS011;50118;53.232;8.252;2023-07-20T12:31:07;2.67;;;1.10;;
58242;SDS011;50118;53.232;8.252;2023-07-20T12:33:36;2.75;;;1.10;;
58242;SDS011;50118;53.232;8.252;2023-07-20T12:36:03;2.80;;;0.90;;
58242;SDS011;50118;53.232;8.252;2023-07-20T12:38:29;2.08;;;1.13;;
58242;SDS011;50118;53.232;8.252;2023-07-20T12:40:56;2.63;;;1.20;;
58242;SDS011;50118;53.232;8.252;2023-07-20T12:43:22;2.95;;;1.13;;
58242;SDS011;50118;53.232;8.252;2023-07-20T12:45:47;4.03;;;1.33;;
58242;SDS011;50118;53.232;8.252;2023-07-20T12:48:13;3.47;;;1.10;;
58242;SDS011;50118;53.232;8.252;2023-07-20T12:50:38;2.95;;;1.48;;
58242;SDS011;50118;53.232;8.252;2023-07-20T12:53:04;4.82;;;1.40;;
58242;SDS011;50118;53.232;8.252;2023-07-20T12:55:29;2.58;;;1.33;;
58242;SDS011;50118;53.232;8.252;2023-07-20T12:57:54;4.07;;;1.30;;
58242;SDS011;50118;53.232;8.252;2023-07-20T13:00:20;1.98;;;1.10;;
58242;SDS011;50118;53.232;8.252;2023-07-20T13:02:48;3.17;;;1.17;;
58242;SDS011;50118;53.232;8.252;2023-07-20T13:05:13;3.00;;;1.20;;
58242;SDS011;50118;53.232;8.252;2023-07-20T13:07:39;3.88;;;1.48;;
58242;SDS011;50118;53.232;8.252;2023-07-20T13:10:06;3.25;;;1.13;;
58242;SDS011;50118;53.232;8.252;2023-07-20T13:12:32;2.83;;;1.20;;
58242;SDS011;50118;53.232;8.252;2023-07-20T13:15:00;3.20;;;1.15;;
58242;SDS011;50118;53.232;8.252;2023-07-20T13:17:30;2.95;;;1.30;;
58242;SDS011;50118;53.232;8.252;2023-07-20T13:19:56;1.98;;;0.90;;
58242;SDS011;50118;53.232;8.252;2023-07-20T13:22:22;2.40;;;0.95;;
58242;SDS011;50118;53.232;8.252;2023-07-20T13:24:48;3.05;;;0.90;;
58242;SDS011;50118;53.232;8.252;2023-07-20T13:27:15;3.03;;;1.05;;
58242;SDS011;50118;53.232;8.252;2023-07-20T13:29:41;1.88;;;1.00;;
58242;SDS011;50118;53.232;8.252;2023-07-20T13:32:07;2.45;;;1.10;;
58242;SDS011;50118;53.232;8.252;2023-07-20T13:34:33;3.15;;;1.40;;
58242;SDS011;50118;53.232;8.252;2023-07-20T13:36:59;4.07;;;1.20;;
58242;SDS011;50118;53.232;8.252;2023-07-20T13:39:25;2.45;;;1.40;;
58242;SDS011;50118;53.232;8.252;2023-07-20T13:41:52;2.15;;;1.00;;
58242;SDS011;50118;53.232;8.252;2023-07-20T13:44:17;3.25;;;1.30;;
58242;SDS011;50118;53.232;8.252;2023-07-20T13:46:42;2.30;;;1.25;;
58242;SDS011;50118;53.232;8.252;2023-07-20T13:49:08;2.65;;;1.17;;
58242;SDS011;50118;53.232;8.252;2023-07-20T13:51:34;4.95;;;1.35;;
58242;SDS011;50118;53.232;8.252;2023-07-20T13:53:59;4.20;;;1.08;;
58242;SDS011;50118;53.232;8.252;2023-07-20T13:56:25;3.35;;;1.02;;
58242;SDS011;50118;53.232;8.252;2023-07-20T13:58:52;2.45;;;1.10;;
58242;SDS011;50118;53.232;8.252;2023-07-20T14:01:17;4.03;;;1.60;;
58242;SDS011;50118;53.232;8.252;2023-07-20T14:03:43;3.72;;;1.30;;
58242;SDS011;50118;53.232;8.252;2023-07-20T14:06:09;5.28;;;1.30;;
58242;SDS011;50118;53.232;8.252;2023-07-20T14:08:34;5.15;;;1.90;;
58242;SDS011;50118;53.232;8.252;2023-07-20T14:11:00;3.35;;;1.20;;
58242;SDS011;50118;53.232;8.252;2023-07-20T14:13:25;4.70;;;1.50;;
58242;SDS011;50118;53.232;8.252;2023-07-20T14:15:51;3.20;;;1.15;;
58242;SDS011;50118;53.232;8.252;2023-07-20T14:18:16;3.78;;;1.10;;
58242;SDS011;50118;53.232;8.252;2023-07-20T14:20:42;2.47;;;1.20;;
58242;SDS011;50118;53.232;8.252;2023-07-20T14:23:09;4.30;;;1.40;;
58242;SDS011;50118;53.232;8.252;2023-07-20T14:25:35;2.80;;;1.20;;
58242;SDS011;50118;53.232;8.252;2023-07-20T14:28:00;3.95;;;1.23;;
58242;SDS011;50118;53.232;8.252;2023-07-20T14:30:26;3.67;;;1.30;;
58242;SDS011;50118;53.232;8.252;2023-07-20T14:32:52;5.00;;;1.30;;
58242;SDS011;50118;53.232;8.252;2023-07-20T14:35:17;3.45;;;1.20;;
58242;SDS011;50118;53.232;8.252;2023-07-20T14:37:42;2.42;;;1.10;;
58242;SDS011;50118;53.232;8.252;2023-07-20T14:40:12;2.53;;;1.30;;
58242;SDS011;50118;53.232;8.252;2023-07-20T14:42:38;2.17;;;1.10;;
58242;SDS011;50118;53.232;8.252;2023-07-20T14:45:04;3.42;;;1.17;;
58242;SDS011;50118;53.232;8.252;2023-07-20T14:47:30;2.90;;;1.17;;
58242;SDS011;50118;53.232;8.252;2023-07-20T14:50:00;2.58;;;1.17;;
58242;SDS011;50118;53.232;8.252;2023-07-20T14:52:28;3.67;;;1.20;;
58242;SDS011;50118;53.232;8.252;2023-07-20T14:54:54;4.97;;;1.30;;
58242;SDS011;50118;53.232;8.252;2023-07-20T14:57:20;3.50;;;1.48;;
58242;SDS011;50118;53.232;8.252;2023-07-20T14:59:47;4.05;;;1.02;;
58242;SDS011;50118;53.232;8.252;2023-07-20T15:02:13;2.97;;;1.20;;